KFRM

Fairmont Municipal Airport

Fairmont, Minnesota, USA
METAR KFRM 161556Z AUTO 30009KT 10SM OVC008 M03/M06 A3006 RMK AO2 SLP198 T10331056 FZRANO
Observed Flight Rules
Nov-16 @ 15:56 UTC (31 minutes ago) Instrument Flight Rules
Wind Visibility Clouds
300° at 9 knots 10 miles
  • Overcast at 800' AGL
Temperatures Readings
Current -3°C / 27°F
Dewpoint -6°C / 21°F
Humidity 80%
Altimeter 30.06" Hg
Pressure 1019.8 hPa
Elevation 354
METAR KFRM 161556Z AUTO 30009KT 10SM OVC008 M03/M06 A3006 RMK AO2 SLP198 T10331056 FZRANO
Observed Flight Rules
Nov-16 @ 15:56 UTC
(31 minutes ago)
IFR
Wind Visibility
300° at 9 knots 10 miles
Clouds
  • Overcast at 800' AGL
Temperature Dewpoint
-3°C / 27°F -6°C / 21°F
Humidity Altimeter Pressure
80% 30.06" Hg 1019.8 hPa